Time;durP1;ratioP1;P1;durP2;ratioP2;P2;SDS_P1;SDS_P2;PMS_P1;PMS_P2;Temp;Humidity;BMP_temperature;BMP_pressure;BME280_temperature;BME280_humidity;BME280_pressure;Samples;Min_cycle;Max_cycle;Signal;HPM_P1;HPM_P2
2024/03/31 00:01:18;;;;;;;20.73;6.28;;;9.10;92.90;;;;;;4975454;28;20041;-79
2024/03/31 00:03:46;;;;;;;11.82;6.03;;;9.10;92.90;;;;;;4975256;28;20387;-79
2024/03/31 00:06:12;;;;;;;8.30;5.65;;;9.10;93.30;;;;;;4975447;28;20030;-79
2024/03/31 00:08:38;;;;;;;10.23;5.85;;;9.10;93.00;;;;;;4975377;28;20031;-79
2024/03/31 00:11:07;;;;;;;6.88;5.40;;;9.10;93.10;;;;;;4975224;28;20094;-80
2024/03/31 00:13:33;;;;;;;9.85;5.35;;;9.00;93.10;;;;;;4976173;28;20037;-80
2024/03/31 00:15:59;;;;;;;7.30;4.97;;;9.00;93.20;;;;;;4976365;28;20051;-80
2024/03/31 00:18:26;;;;;;;7.35;5.15;;;9.00;93.30;;;;;;4975654;28;20027;-78
2024/03/31 00:20:55;;;;;;;17.77;6.95;;;8.90;93.30;;;;;;4975289;28;20066;-78
2024/03/31 00:23:22;;;;;;;12.02;5.75;;;8.90;93.50;;;;;;4975732;28;20030;-78
2024/03/31 00:25:56;;;;;;;9.88;5.18;;;8.80;93.50;;;;;;4975500;28;20044;-77
2024/03/31 00:28:21;;;;;;;7.90;4.57;;;8.80;93.60;;;;;;4980922;28;20396;-78
2024/03/31 00:31:00;;;;;;;5.50;4.72;;;8.80;93.70;;;;;;4978018;28;20138;-79
2024/03/31 00:33:26;;;;;;;7.22;5.15;;;8.80;93.80;;;;;;4970628;28;20023;-77
2024/03/31 00:35:53;;;;;;;7.05;4.43;;;8.70;93.90;;;;;;4976817;28;20023;-79
2024/03/31 00:38:18;;;;;;;6.95;4.20;;;8.70;93.90;;;;;;4975159;28;20022;-79
2024/03/31 00:40:44;;;;;;;6.45;4.25;;;8.70;93.90;;;;;;4967970;28;20029;-79
2024/03/31 00:43:10;;;;;;;7.00;4.50;;;8.70;94.00;;;;;;4974689;28;20025;-78
2024/03/31 00:45:36;;;;;;;8.43;4.30;;;8.70;94.10;;;;;;4974566;28;20470;-80
2024/03/31 00:48:01;;;;;;;7.07;5.13;;;8.70;94.10;;;;;;4974730;28;20058;-78
2024/03/31 00:50:27;;;;;;;7.63;4.32;;;8.70;94.20;;;;;;4974557;28;20380;-79
2024/03/31 00:52:53;;;;;;;7.97;4.82;;;8.60;94.20;;;;;;4973140;28;20022;-79
2024/03/31 00:55:19;;;;;;;5.82;4.28;;;8.60;94.30;;;;;;4973268;28;20477;-79
2024/03/31 00:57:44;;;;;;;7.47;4.65;;;8.50;94.30;;;;;;4974290;28;20129;-79
2024/03/31 01:00:10;;;;;;;7.03;5.05;;;8.50;94.40;;;;;;4974194;28;20030;-79
2024/03/31 01:02:36;;;;;;;10.50;4.70;;;8.50;94.50;;;;;;4974588;28;20455;-78
2024/03/31 01:05:02;;;;;;;7.85;4.82;;;8.50;94.50;;;;;;4974387;28;20027;-78
2024/03/31 01:07:28;;;;;;;7.90;4.85;;;8.40;94.60;;;;;;4974563;28;20035;-79
2024/03/31 01:09:53;;;;;;;6.68;4.60;;;8.40;94.70;;;;;;4974462;28;20035;-80
2024/03/31 01:12:19;;;;;;;6.90;5.50;;;8.30;94.70;;;;;;4974511;28;20026;-80
2024/03/31 01:14:45;;;;;;;7.60;4.68;;;8.30;94.80;;;;;;4972844;28;20077;-81
2024/03/31 01:17:11;;;;;;;9.90;4.85;;;8.30;95.00;;;;;;4974144;28;20081;-77
2024/03/31 01:19:36;;;;;;;5.28;4.75;;;8.30;95.00;;;;;;4974226;28;20023;-79
2024/03/31 01:22:02;;;;;;;11.68;8.05;;;8.30;95.10;;;;;;4974228;28;20027;-78
2024/03/31 01:24:28;;;;;;;7.93;5.35;;;8.20;95.20;;;;;;4974154;28;20031;-79
2024/03/31 01:26:54;;;;;;;7.43;5.72;;;8.20;95.20;;;;;;4974054;28;20432;-79
2024/03/31 01:29:20;;;;;;;8.00;5.32;;;8.20;95.30;;;;;;4974311;28;20026;-79
2024/03/31 01:31:46;;;;;;;7.68;5.47;;;8.10;95.40;;;;;;4973979;28;20026;-80
2024/03/31 01:34:11;;;;;;;7.78;4.97;;;8.10;95.40;;;;;;4974059;28;20055;-79
2024/03/31 01:36:37;;;;;;;10.43;5.55;;;8.10;95.50;;;;;;4973934;28;20023;-78
2024/03/31 01:39:03;;;;;;;7.13;5.85;;;8.00;95.70;;;;;;4974003;28;20025;-78
2024/03/31 01:41:29;;;;;;;6.13;4.63;;;8.00;95.80;;;;;;4974342;28;20038;-80
2024/03/31 01:43:54;;;;;;;8.13;4.45;;;8.00;95.90;;;;;;4973914;28;20026;-79
2024/03/31 01:46:20;;;;;;;12.20;4.85;;;8.00;96.00;;;;;;4973880;28;20170;-78
2024/03/31 01:48:46;;;;;;;7.60;5.68;;;8.00;96.00;;;;;;4972936;28;20330;-80
2024/03/31 01:51:11;;;;;;;8.60;4.68;;;8.00;96.00;;;;;;4972647;28;20023;-79
2024/03/31 01:53:37;;;;;;;6.68;5.18;;;7.90;96.10;;;;;;4974589;28;20484;-78
2024/03/31 01:56:03;;;;;;;7.72;5.82;;;7.80;96.20;;;;;;4974719;28;20098;-79
2024/03/31 01:58:29;;;;;;;11.57;7.10;;;7.80;96.40;;;;;;4974735;28;20059;-80
2024/03/31 02:00:55;;;;;;;7.40;4.70;;;7.70;96.50;;;;;;4974629;28;20365;-78
2024/03/31 02:03:20;;;;;;;12.30;6.15;;;7.70;96.50;;;;;;4974181;28;20487;-79
2024/03/31 02:05:46;;;;;;;9.25;5.03;;;7.70;96.60;;;;;;4974285;28;20455;-79
2024/03/31 02:08:12;;;;;;;8.68;6.03;;;7.70;96.70;;;;;;4974102;28;20023;-78
2024/03/31 02:10:37;;;;;;;6.57;5.80;;;7.70;97.00;;;;;;4978410;28;20456;-78
2024/03/31 02:13:03;;;;;;;12.52;6.65;;;7.60;96.90;;;;;;4977982;28;20027;-79
2024/03/31 02:15:29;;;;;;;10.05;5.30;;;7.60;97.00;;;;;;4978125;28;20559;-78
2024/03/31 02:17:55;;;;;;;6.95;4.93;;;7.60;97.00;;;;;;4977428;28;20026;-78
2024/03/31 02:20:20;;;;;;;12.43;5.90;;;7.50;97.10;;;;;;4977446;28;20042;-78
2024/03/31 02:22:46;;;;;;;7.53;5.75;;;7.50;97.30;;;;;;4978116;28;20023;-79
2024/03/31 02:25:12;;;;;;;7.95;6.15;;;7.40;97.40;;;;;;4982544;28;20027;-80
2024/03/31 02:27:37;;;;;;;7.90;5.93;;;7.40;97.50;;;;;;4981307;28;20052;-80
2024/03/31 02:30:06;;;;;;;10.40;5.53;;;7.40;97.50;;;;;;4977422;28;20099;-80
2024/03/31 02:32:32;;;;;;;12.18;6.70;;;7.40;97.70;;;;;;4976225;28;20030;-77
2024/03/31 02:34:58;;;;;;;6.43;5.43;;;7.40;97.70;;;;;;4977538;28;20030;-79
2024/03/31 02:37:23;;;;;;;6.75;4.65;;;7.40;97.80;;;;;;4977367;28;20113;-80
2024/03/31 02:39:49;;;;;;;9.63;6.00;;;7.40;97.80;;;;;;4977276;28;20101;-79
2024/03/31 02:42:15;;;;;;;7.63;5.53;;;7.40;97.90;;;;;;4977099;28;20018;-78
2024/03/31 02:44:41;;;;;;;8.02;6.35;;;7.40;97.90;;;;;;4977033;28;20045;-79
2024/03/31 02:47:06;;;;;;;7.22;5.78;;;7.30;97.90;;;;;;4976926;28;20066;-80
2024/03/31 02:49:32;;;;;;;8.27;5.93;;;7.30;98.00;;;;;;4976762;28;20141;-80
2024/03/31 02:51:58;;;;;;;9.23;5.85;;;7.30;98.20;;;;;;4975681;28;20121;-76
2024/03/31 02:54:24;;;;;;;6.95;5.72;;;7.20;98.30;;;;;;4975325;28;20158;-79
2024/03/31 02:56:49;;;;;;;8.75;5.82;;;7.20;98.30;;;;;;4977005;28;20030;-78
2024/03/31 02:59:15;;;;;;;9.95;5.88;;;7.20;98.40;;;;;;4976379;28;20069;-79
2024/03/31 03:01:41;;;;;;;10.10;7.57;;;7.10;98.50;;;;;;4976871;28;20503;-78
2024/03/31 03:04:07;;;;;;;9.18;6.43;;;7.10;98.80;;;;;;4976761;28;20435;-77
2024/03/31 03:06:32;;;;;;;10.15;6.88;;;7.10;99.00;;;;;;4975146;28;20031;-79
2024/03/31 03:08:58;;;;;;;10.93;6.30;;;7.10;99.00;;;;;;4976700;28;20109;-78
2024/03/31 03:11:24;;;;;;;10.52;6.72;;;7.20;99.00;;;;;;4976550;28;20038;-77
2024/03/31 03:13:49;;;;;;;10.65;6.45;;;7.20;99.00;;;;;;4976503;28;20030;-78
2024/03/31 03:16:15;;;;;;;8.65;7.72;;;7.20;99.00;;;;;;4974917;28;20027;-79
2024/03/31 03:18:41;;;;;;;11.45;6.70;;;7.20;99.10;;;;;;4976474;28;20082;-78
2024/03/31 03:21:07;;;;;;;9.40;6.80;;;7.30;99.20;;;;;;4976011;28;20058;-78
2024/03/31 03:23:33;;;;;;;12.27;7.68;;;7.30;99.10;;;;;;4975482;28;20391;-79
2024/03/31 03:25:59;;;;;;;9.02;7.10;;;7.30;99.10;;;;;;4976426;28;20486;-79
2024/03/31 03:28:25;;;;;;;9.73;7.80;;;7.30;99.20;;;;;;4975938;28;20030;-78
2024/03/31 03:30:51;;;;;;;8.48;7.10;;;7.30;99.20;;;;;;4976206;28;20388;-79
2024/03/31 03:33:17;;;;;;;10.35;7.35;;;7.30;99.20;;;;;;4976206;28;20046;-78
2024/03/31 03:35:43;;;;;;;14.80;8.80;;;7.30;99.30;;;;;;4976188;28;20483;-77
2024/03/31 03:38:08;;;;;;;12.43;8.18;;;7.30;99.20;;;;;;4976093;28;20049;-79
2024/03/31 03:40:35;;;;;;;12.27;7.80;;;7.40;99.30;;;;;;4974506;28;20022;-76
2024/03/31 03:43:01;;;;;;;18.80;11.00;;;7.50;99.20;;;;;;4977554;28;20086;-78
2024/03/31 03:45:27;;;;;;;12.38;9.15;;;7.50;99.10;;;;;;4976125;28;20023;-78
2024/03/31 03:47:52;;;;;;;12.48;7.65;;;7.60;99.10;;;;;;4976090;28;20089;-79
2024/03/31 03:50:18;;;;;;;11.13;7.93;;;7.60;99.00;;;;;;4976038;28;20538;-78
2024/03/31 03:52:44;;;;;;;9.43;7.20;;;7.70;98.90;;;;;;4978468;28;20086;-79
2024/03/31 03:55:10;;;;;;;11.10;7.88;;;7.70;98.80;;;;;;4980249;28;20034;-79
2024/03/31 03:57:35;;;;;;;14.70;9.75;;;7.70;98.70;;;;;;4976058;28;20041;-78
2024/03/31 04:00:04;;;;;;;11.90;8.50;;;7.80;98.70;;;;;;4976284;28;20043;-79
2024/03/31 04:02:30;;;;;;;14.63;8.55;;;7.80;98.60;;;;;;4976210;28;20038;-79
2024/03/31 04:04:55;;;;;;;15.43;8.35;;;7.90;98.50;;;;;;4976188;28;20106;-79
2024/03/31 04:07:21;;;;;;;13.57;9.70;;;7.90;98.40;;;;;;4975595;28;20583;-80
2024/03/31 04:09:47;;;;;;;12.50;9.93;;;7.90;98.30;;;;;;4975686;28;20101;-79
2024/03/31 04:12:13;;;;;;;16.45;10.07;;;7.90;98.40;;;;;;4975554;28;20031;-79
2024/03/31 04:14:39;;;;;;;12.30;8.95;;;8.00;98.60;;;;;;4975270;28;20077;-78
2024/03/31 04:17:05;;;;;;;20.98;9.30;;;8.10;99.00;;;;;;4975321;28;20380;-80
2024/03/31 04:19:31;;;;;;;12.02;9.18;;;8.20;99.30;;;;;;4976930;28;20027;-79
2024/03/31 04:21:57;;;;;;;16.70;10.23;;;8.50;99.20;;;;;;4975531;28;20027;-80
2024/03/31 04:24:22;;;;;;;15.65;10.40;;;8.80;98.30;;;;;;4975470;28;20023;-79
2024/03/31 04:26:48;;;;;;;12.50;9.07;;;9.20;97.70;;;;;;4975009;28;20507;-77
2024/03/31 04:29:14;;;;;;;14.93;10.15;;;9.60;96.70;;;;;;4975166;28;20022;-79
2024/03/31 04:31:51;;;;;;;12.68;9.60;;;10.00;95.70;;;;;;4973826;28;20589;-79
2024/03/31 04:34:17;;;;;;;14.75;10.38;;;10.30;94.80;;;;;;4974956;28;20023;-79
2024/03/31 04:36:44;;;;;;;10.75;9.65;;;10.50;94.40;;;;;;4953313;28;20035;-80
2024/03/31 04:39:10;;;;;;;14.63;9.63;;;10.90;93.60;;;;;;4954079;28;20118;-79
2024/03/31 04:41:35;;;;;;;15.25;10.68;;;11.30;93.00;;;;;;4953323;28;20114;-79
2024/03/31 04:44:01;;;;;;;11.25;9.30;;;11.60;91.80;;;;;;4953672;28;20039;-79
2024/03/31 04:46:27;;;;;;;13.77;9.95;;;11.70;91.10;;;;;;4937682;29;20130;-78
2024/03/31 04:48:53;;;;;;;15.65;10.50;;;11.90;91.00;;;;;;4953241;28;20031;-80
2024/03/31 04:51:18;;;;;;;13.95;10.60;;;12.00;90.20;;;;;;4953471;28;20047;-80
2024/03/31 04:53:44;;;;;;;19.42;12.95;;;11.60;89.40;;;;;;4953354;28;20449;-78
2024/03/31 04:56:10;;;;;;;16.70;11.88;;;11.00;90.30;;;;;;4953038;28;20075;-78
2024/03/31 04:58:36;;;;;;;13.95;11.23;;;10.50;91.10;;;;;;4952836;28;20055;-80
2024/03/31 05:01:02;;;;;;;15.15;11.20;;;10.00;91.90;;;;;;4952766;28;20106;-81
2024/03/31 05:03:28;;;;;;;13.77;11.63;;;9.60;92.70;;;;;;4953445;28;20061;-80
2024/03/31 05:05:53;;;;;;;14.63;11.75;;;9.40;93.40;;;;;;4953311;28;20039;-80
2024/03/31 05:08:19;;;;;;;35.75;12.05;;;9.20;93.80;;;;;;4969233;28;20511;-79
2024/03/31 05:10:56;;;;;;;16.02;11.15;;;9.10;94.30;;;;;;4974364;28;20027;-80
2024/03/31 05:13:27;;;;;;;17.80;12.15;;;8.90;94.60;;;;;;4974093;28;20022;-78
2024/03/31 05:16:09;;;;;;;16.10;11.68;;;8.90;95.00;;;;;;4974299;28;20506;-78
2024/03/31 05:18:35;;;;;;;16.70;11.85;;;8.80;95.10;;;;;;4973861;28;20611;-78
2024/03/31 05:21:05;;;;;;;17.63;12.00;;;8.70;95.30;;;;;;4967543;28;20110;-81
2024/03/31 05:23:32;;;;;;;17.52;12.13;;;8.70;95.60;;;;;;4972806;28;20031;-80
2024/03/31 05:25:59;;;;;;;18.98;12.18;;;8.70;95.80;;;;;;4975411;28;20037;-78
2024/03/31 05:28:26;;;;;;;16.85;11.93;;;8.70;96.20;;;;;;4975694;28;20019;-80
2024/03/31 05:30:52;;;;;;;18.40;12.68;;;8.70;96.00;;;;;;4974424;28;20031;-79
2024/03/31 05:33:18;;;;;;;15.50;12.15;;;8.80;96.10;;;;;;4974855;28;20029;-79
2024/03/31 05:35:44;;;;;;;15.95;12.55;;;8.80;96.10;;;;;;4975050;28;20065;-79
2024/03/31 05:38:12;;;;;;;14.63;11.50;;;8.80;96.10;;;;;;4975577;28;20023;-80
2024/03/31 05:40:41;;;;;;;14.63;12.98;;;8.90;96.10;;;;;;4977108;28;20480;-80
2024/03/31 05:43:07;;;;;;;16.35;12.30;;;8.90;96.20;;;;;;4974858;28;20110;-80
2024/03/31 05:45:37;;;;;;;15.52;12.50;;;8.90;96.20;;;;;;4976620;28;20018;-79
2024/03/31 05:48:05;;;;;;;14.95;12.10;;;9.00;96.20;;;;;;4978294;28;20064;-80
2024/03/31 05:50:31;;;;;;;17.85;11.18;;;9.00;96.10;;;;;;4978066;28;20018;-79
2024/03/31 05:52:57;;;;;;;17.08;13.60;;;9.10;96.20;;;;;;4977799;28;20070;-79
2024/03/31 05:55:23;;;;;;;17.17;13.68;;;9.10;96.10;;;;;;4976843;28;20027;-79
2024/03/31 05:57:49;;;;;;;14.95;12.43;;;9.10;96.20;;;;;;4977988;28;20377;-79
2024/03/31 06:00:16;;;;;;;16.75;12.40;;;9.20;96.10;;;;;;4978460;28;20035;-79
2024/03/31 06:02:41;;;;;;;17.70;12.73;;;9.30;96.00;;;;;;4977717;28;20156;-81
2024/03/31 06:05:07;;;;;;;15.50;12.52;;;9.30;95.80;;;;;;4978247;28;20079;-78
2024/03/31 06:07:34;;;;;;;16.63;11.43;;;9.40;95.80;;;;;;4977998;28;20038;-79
2024/03/31 06:09:59;;;;;;;16.75;12.73;;;9.40;95.70;;;;;;4978261;28;20384;-80
2024/03/31 06:12:26;;;;;;;17.35;12.32;;;9.60;95.60;;;;;;4978455;28;20031;-79
2024/03/31 06:14:52;;;;;;;16.30;12.57;;;9.70;95.50;;;;;;4977343;28;20509;-80
2024/03/31 06:17:19;;;;;;;13.70;11.65;;;9.80;95.30;;;;;;4977607;28;20118;-78
2024/03/31 06:19:45;;;;;;;20.35;11.18;;;9.80;95.10;;;;;;4977529;28;20018;-80
2024/03/31 06:22:11;;;;;;;20.55;12.88;;;9.90;95.00;;;;;;4976257;28;20035;-80
2024/03/31 06:24:37;;;;;;;16.88;13.65;;;9.90;95.00;;;;;;4977685;28;20019;-80
2024/03/31 06:27:03;;;;;;;19.10;11.82;;;9.90;94.80;;;;;;4977599;28;20616;-80
2024/03/31 06:29:28;;;;;;;16.20;12.02;;;10.00;94.80;;;;;;4977422;28;20494;-79
2024/03/31 06:31:54;;;;;;;16.13;12.13;;;10.00;94.70;;;;;;4977231;28;20026;-78
2024/03/31 06:34:20;;;;;;;15.73;12.13;;;10.00;94.70;;;;;;4977197;28;20019;-80
2024/03/31 06:36:46;;;;;;;15.95;11.32;;;10.00;94.60;;;;;;4977065;28;20034;-80
2024/03/31 06:39:12;;;;;;;15.32;11.85;;;10.00;94.50;;;;;;4977322;28;20449;-78
2024/03/31 06:41:38;;;;;;;12.98;11.30;;;10.10;94.50;;;;;;4977129;28;20052;-79
2024/03/31 06:44:04;;;;;;;13.57;10.63;;;10.10;94.40;;;;;;4975729;28;20109;-79
2024/03/31 06:46:30;;;;;;;17.05;11.93;;;10.20;94.40;;;;;;4976991;28;20114;-79
2024/03/31 06:48:56;;;;;;;13.40;11.35;;;10.30;94.30;;;;;;4976536;28;20031;-80
2024/03/31 06:51:24;;;;;;;15.45;11.00;;;10.40;94.20;;;;;;4977156;28;20033;-78
2024/03/31 06:53:51;;;;;;;14.32;11.10;;;10.40;94.00;;;;;;4975382;28;20101;-78
2024/03/31 06:56:17;;;;;;;15.60;11.25;;;10.50;93.90;;;;;;4974360;28;20114;-80
2024/03/31 06:58:43;;;;;;;14.77;10.65;;;10.60;93.70;;;;;;4976902;28;20121;-78
2024/03/31 07:01:09;;;;;;;16.42;10.40;;;10.70;93.60;;;;;;4977374;28;20154;-80
2024/03/31 07:03:35;;;;;;;14.02;9.57;;;10.80;93.40;;;;;;4975546;28;20026;-80
2024/03/31 07:06:02;;;;;;;19.60;10.48;;;10.90;93.20;;;;;;4976278;28;20041;-80
2024/03/31 07:08:28;;;;;;;14.40;9.27;;;11.00;93.00;;;;;;4975683;28;20506;-79
2024/03/31 07:10:54;;;;;;;11.98;8.38;;;11.20;92.90;;;;;;4977539;28;20027;-79
2024/03/31 07:13:20;;;;;;;11.95;8.15;;;11.90;93.10;;;;;;4976700;28;20396;-78
2024/03/31 07:15:45;;;;;;;12.63;8.52;;;13.60;92.10;;;;;;4975345;28;20457;-82
2024/03/31 07:18:11;;;;;;;16.08;8.77;;;15.80;87.20;;;;;;4976536;28;20094;-81
2024/03/31 07:20:38;;;;;;;11.95;6.85;;;18.00;79.30;;;;;;4976440;28;20420;-81
2024/03/31 07:23:05;;;;;;;7.97;5.23;;;21.00;72.90;;;;;;4976219;28;20027;-79
2024/03/31 07:25:36;;;;;;;9.40;6.63;;;21.70;65.40;;;;;;4978289;28;20423;-80
2024/03/31 07:28:02;;;;;;;12.65;7.60;;;23.10;58.40;;;;;;4977794;28;20514;-82
2024/03/31 07:30:28;;;;;;;13.70;8.07;;;23.40;55.60;;;;;;4976635;28;20106;-81
2024/03/31 07:32:54;;;;;;;10.85;7.00;;;23.70;54.30;;;;;;4976641;28;20062;-79
2024/03/31 07:35:20;;;;;;;16.20;7.63;;;24.90;54.90;;;;;;4976760;28;20046;-83
2024/03/31 07:37:46;;;;;;;10.40;6.30;;;25.70;50.90;;;;;;4976366;28;20026;-82
2024/03/31 07:40:13;;;;;;;9.35;6.50;;;25.70;49.20;;;;;;4976392;28;20451;-81
2024/03/31 07:42:39;;;;;;;7.38;5.93;;;26.60;47.80;;;;;;4974671;28;20036;-79
2024/03/31 07:45:05;;;;;;;8.80;6.40;;;28.00;48.30;;;;;;4976021;28;20034;-81
2024/03/31 07:47:32;;;;;;;9.40;6.97;;;28.30;44.80;;;;;;4975714;28;20034;-81
2024/03/31 07:49:58;;;;;;;9.40;7.18;;;29.00;43.60;;;;;;4975839;28;20077;-81
2024/03/31 07:52:24;;;;;;;9.03;6.43;;;29.40;43.70;;;;;;4975384;28;20031;-81
2024/03/31 07:54:50;;;;;;;8.83;5.13;;;29.50;42.30;;;;;;4977124;28;20030;-79
2024/03/31 07:57:16;;;;;;;11.00;6.10;;;29.40;40.90;;;;;;4976776;28;20019;-82
2024/03/31 07:59:41;;;;;;;10.80;6.40;;;28.90;41.20;;;;;;4975730;28;20057;-80
2024/03/31 08:02:07;;;;;;;9.47;5.30;;;29.20;41.10;;;;;;4976037;28;20093;-79
2024/03/31 08:04:33;;;;;;;8.37;5.30;;;28.90;40.60;;;;;;4976047;28;20019;-81
2024/03/31 08:06:59;;;;;;;8.57;5.27;;;28.10;41.10;;;;;;4974100;28;20081;-76
2024/03/31 08:09:26;;;;;;;9.33;5.20;;;28.10;41.60;;;;;;4974999;28;20106;-81
2024/03/31 08:11:51;;;;;;;8.38;5.35;;;28.40;41.20;;;;;;4975703;28;20034;-83
2024/03/31 08:14:17;;;;;;;5.93;4.87;;;28.50;41.00;;;;;;4977028;28;20026;-79
2024/03/31 08:16:46;;;;;;;7.43;4.07;;;28.90;40.60;;;;;;4975932;28;20062;-81
2024/03/31 08:19:13;;;;;;;9.55;5.13;;;29.40;39.70;;;;;;4973790;28;20114;-82
2024/03/31 08:21:39;;;;;;;9.45;5.20;;;29.40;39.10;;;;;;4975128;28;20027;-80
2024/03/31 08:24:05;;;;;;;7.20;5.23;;;29.10;39.30;;;;;;4975675;28;20029;-83
2024/03/31 08:26:31;;;;;;;12.20;5.20;;;29.60;39.50;;;;;;4975006;28;20031;-80
2024/03/31 08:28:57;;;;;;;8.77;5.40;;;30.30;38.80;;;;;;4975411;28;20115;-81
2024/03/31 08:31:23;;;;;;;9.80;6.10;;;30.50;38.10;;;;;;4975244;28;20030;-81
2024/03/31 08:33:49;;;;;;;13.13;5.57;;;31.00;37.70;;;;;;4973619;28;20030;-80
2024/03/31 08:36:15;;;;;;;9.53;4.90;;;31.80;37.40;;;;;;4973717;28;20069;-79
2024/03/31 08:38:40;;;;;;;10.20;5.53;;;32.40;37.40;;;;;;4974846;28;20027;-81
2024/03/31 08:41:08;;;;;;;6.90;5.17;;;32.40;36.10;;;;;;4975254;28;20063;-81
2024/03/31 08:43:39;;;;;;;9.30;5.00;;;32.30;35.80;;;;;;4974749;28;20114;-81
2024/03/31 08:46:09;;;;;;;5.78;4.28;;;32.10;36.20;;;;;;4974646;28;20035;-80
2024/03/31 08:48:39;;;;;;;7.93;5.28;;;31.50;35.80;;;;;;4973705;28;20027;-82
2024/03/31 08:51:07;;;;;;;11.57;5.82;;;31.10;36.60;;;;;;4974974;28;20362;-81
2024/03/31 08:53:36;;;;;;;9.95;5.50;;;30.90;36.30;;;;;;4974963;28;20031;-80
2024/03/31 08:56:01;;;;;;;16.40;5.72;;;30.50;36.50;;;;;;4975046;28;20081;-81
2024/03/31 08:58:27;;;;;;;11.47;5.40;;;30.60;36.30;;;;;;4974606;28;20062;-80
2024/03/31 09:00:56;;;;;;;7.70;5.60;;;30.80;36.30;;;;;;4974346;28;20023;-81
2024/03/31 09:03:22;;;;;;;9.98;5.13;;;30.50;36.20;;;;;;4973371;28;20023;-81
2024/03/31 09:05:48;;;;;;;9.00;6.00;;;30.00;36.60;;;;;;4974673;28;20032;-80
2024/03/31 09:08:14;;;;;;;7.45;5.80;;;30.00;36.80;;;;;;4974731;28;20481;-81
2024/03/31 09:10:41;;;;;;;8.68;5.38;;;29.60;37.20;;;;;;4974289;28;20077;-81
2024/03/31 09:13:08;;;;;;;10.38;5.00;;;29.70;36.70;;;;;;4974312;28;20023;-81
2024/03/31 09:15:47;;;;;;;10.90;5.20;;;29.20;37.00;;;;;;4976988;28;20082;-80
2024/03/31 09:18:13;;;;;;;10.38;4.93;;;29.40;36.40;;;;;;4983373;28;20027;-79
2024/03/31 09:20:39;;;;;;;10.73;5.43;;;30.20;36.30;;;;;;4974714;28;20045;-81
2024/03/31 09:23:05;;;;;;;7.27;5.30;;;31.20;35.30;;;;;;4974688;28;20018;-83
2024/03/31 09:25:31;;;;;;;12.57;6.20;;;30.90;35.20;;;;;;4974419;28;20026;-81
2024/03/31 09:28:02;;;;;;;13.97;6.37;;;31.40;35.70;;;;;;4974541;28;20126;-80
2024/03/31 09:30:31;;;;;;;13.77;4.30;;;32.20;35.20;;;;;;4974965;28;20019;-81
2024/03/31 09:32:58;;;;;;;6.97;3.85;;;32.50;33.30;;;;;;4974537;28;20085;-80
2024/03/31 09:35:24;;;;;;;11.15;4.47;;;31.90;33.50;;;;;;4974392;28;20015;-80
2024/03/31 09:37:51;;;;;;;11.77;4.53;;;31.80;33.90;;;;;;4974157;28;20038;-83
2024/03/31 09:40:17;;;;;;;8.48;5.22;;;32.00;33.90;;;;;;4973952;28;20030;-82
2024/03/31 09:42:47;;;;;;;5.82;3.70;;;31.60;33.70;;;;;;4974155;28;20023;-80
2024/03/31 09:45:13;;;;;;;7.28;2.97;;;32.20;33.60;;;;;;4973855;28;20030;-82
2024/03/31 09:47:48;;;;;;;6.38;3.83;;;32.40;33.00;;;;;;4974145;28;20380;-82
2024/03/31 09:50:14;;;;;;;5.35;4.20;;;32.60;33.10;;;;;;4973997;28;20042;-81
2024/03/31 09:52:43;;;;;;;7.27;3.97;;;32.20;33.00;;;;;;4974483;28;20015;-80
2024/03/31 09:55:17;;;;;;;10.88;4.75;;;31.70;32.90;;;;;;4974418;28;20050;-82
2024/03/31 09:57:47;;;;;;;10.23;3.97;;;31.60;33.70;;;;;;4974494;28;20039;-82
2024/03/31 10:00:14;;;;;;;5.65;3.72;;;31.80;33.50;;;;;;4973881;28;20037;-82
2024/03/31 10:02:49;;;;;;;6.97;3.70;;;31.60;32.80;;;;;;4973407;28;20034;-80
2024/03/31 10:05:32;;;;;;;7.28;3.05;;;30.50;33.10;;;;;;4973918;28;20030;-79
2024/03/31 10:07:59;;;;;;;8.48;4.30;;;30.20;33.30;;;;;;4973628;28;20333;-82
2024/03/31 10:10:27;;;;;;;8.75;4.28;;;30.40;34.60;;;;;;4973754;28;20103;-80
2024/03/31 10:12:55;;;;;;;9.35;4.18;;;30.70;34.40;;;;;;4972495;28;20027;-81
2024/03/31 10:15:22;;;;;;;8.68;4.50;;;31.00;34.10;;;;;;4975848;28;20027;-80
2024/03/31 10:17:49;;;;;;;;;;;31.20;33.90;;;;;;4974017;28;20049;-82
2024/03/31 10:20:18;;;;;;;13.13;4.50;;;31.40;34.80;;;;;;4974082;28;19907;-80
2024/03/31 10:22:45;;;;;;;12.05;4.07;;;31.10;34.00;;;;;;4973584;28;20026;-82
2024/03/31 10:25:11;;;;;;;;;;;30.40;33.60;;;;;;4973942;28;20102;-81
2024/03/31 10:27:41;;;;;;;7.25;4.75;;;28.80;34.70;;;;;;4973329;28;19914;-80
2024/03/31 10:30:08;;;;;;;8.02;4.78;;;27.30;35.90;;;;;;4973560;28;20026;-80
2024/03/31 10:32:38;;;;;;;7.30;4.30;;;25.40;37.60;;;;;;4976504;28;20019;-80
2024/03/31 10:35:05;;;;;;;9.30;5.22;;;24.00;39.60;;;;;;4976987;28;20364;-79
2024/03/31 10:37:32;;;;;;;5.75;4.57;;;22.60;41.60;;;;;;4976230;28;20031;-81
2024/03/31 10:39:59;;;;;;;9.52;5.10;;;21.90;43.70;;;;;;4977515;28;20054;-81
2024/03/31 10:42:25;;;;;;;9.02;4.85;;;21.20;44.10;;;;;;4977635;28;20440;-81
2024/03/31 10:44:54;;;;;;;10.32;5.45;;;20.60;45.40;;;;;;4975752;28;20157;-81
2024/03/31 10:47:23;;;;;;;8.15;4.57;;;20.30;45.50;;;;;;4977941;28;20031;-81
2024/03/31 10:49:57;;;;;;;8.73;4.93;;;20.10;45.80;;;;;;4976966;28;20035;-82
2024/03/31 10:52:27;;;;;;;6.80;4.40;;;19.80;46.00;;;;;;4976751;28;20027;-82
2024/03/31 10:54:55;;;;;;;11.43;5.00;;;19.70;46.60;;;;;;4977109;28;20471;-80
2024/03/31 10:57:22;;;;;;;21.33;17.70;;;19.50;46.50;;;;;;4976725;28;20027;-81
2024/03/31 10:59:48;;;;;;;12.40;5.63;;;19.30;47.30;;;;;;4977077;28;20029;-80
2024/03/31 11:02:15;;;;;;;6.82;4.10;;;19.00;47.60;;;;;;4977007;28;20035;-80
2024/03/31 11:04:45;;;;;;;2.87;2.50;;;19.00;47.90;;;;;;4976947;28;20025;-79
2024/03/31 11:07:13;;;;;;;9.25;3.97;;;18.80;46.30;;;;;;4983839;28;20126;-80
2024/03/31 11:09:40;;;;;;;8.25;5.18;;;18.40;46.90;;;;;;4980559;28;20098;-81
2024/03/31 11:12:12;;;;;;;6.55;4.40;;;18.30;47.50;;;;;;4977294;28;20034;-79
2024/03/31 11:14:38;;;;;;;9.35;4.13;;;18.10;47.80;;;;;;4977212;28;20562;-80
2024/03/31 11:17:04;;;;;;;6.93;3.47;;;18.10;47.80;;;;;;4977398;28;20091;-79
2024/03/31 11:19:31;;;;;;;6.70;4.00;;;18.10;47.80;;;;;;4977066;28;20069;-79
2024/03/31 11:22:05;;;;;;;11.70;5.00;;;18.00;48.70;;;;;;4976477;28;20023;-80
2024/03/31 11:24:34;;;;;;;8.18;3.60;;;18.00;49.80;;;;;;4976745;28;20027;-78
2024/03/31 11:27:01;;;;;;;7.40;2.78;;;18.10;48.70;;;;;;4963048;28;20066;-83
2024/03/31 11:29:28;;;;;;;6.78;3.42;;;18.00;48.20;;;;;;4977504;28;20061;-78
2024/03/31 11:31:54;;;;;;;4.33;3.10;;;18.00;48.10;;;;;;4978295;28;20026;-80
2024/03/31 11:34:20;;;;;;;5.75;2.67;;;17.90;48.20;;;;;;4977469;28;20031;-79
2024/03/31 11:36:47;;;;;;;4.82;3.08;;;17.90;48.40;;;;;;4975913;28;20026;-79
2024/03/31 11:39:13;;;;;;;6.73;2.80;;;17.70;48.50;;;;;;4976243;28;20376;-80
2024/03/31 11:41:39;;;;;;;6.47;2.97;;;17.60;48.50;;;;;;4976241;28;20273;-79
2024/03/31 11:44:05;;;;;;;7.60;2.92;;;17.50;48.30;;;;;;4975820;28;20030;-82
2024/03/31 11:46:31;;;;;;;8.23;3.67;;;17.50;49.00;;;;;;4976983;28;20030;-80
2024/03/31 11:49:01;;;;;;;12.40;4.25;;;17.50;50.40;;;;;;4975981;28;20519;-80
2024/03/31 11:51:29;;;;;;;7.30;4.05;;;17.60;51.60;;;;;;4975614;28;20487;-79
2024/03/31 11:53:55;;;;;;;6.55;4.30;;;17.60;51.30;;;;;;4975515;28;20030;-79
2024/03/31 11:56:21;;;;;;;8.52;4.50;;;17.60;51.40;;;;;;4975629;28;20085;-78
2024/03/31 11:58:47;;;;;;;6.15;4.28;;;17.50;51.70;;;;;;4975970;28;20523;-79
2024/03/31 12:01:22;;;;;;;11.35;5.22;;;17.40;51.90;;;;;;4976131;28;20019;-77
2024/03/31 12:03:54;;;;;;;7.60;4.97;;;17.50;52.20;;;;;;4976355;28;20110;-81
2024/03/31 12:06:22;;;;;;;8.70;4.35;;;17.60;52.20;;;;;;4975772;28;20043;-80
2024/03/31 12:08:50;;;;;;;9.30;4.43;;;17.60;52.20;;;;;;4975758;28;20353;-80
2024/03/31 12:11:19;;;;;;;7.05;5.28;;;17.50;51.90;;;;;;4975616;28;20031;-80
2024/03/31 12:13:50;;;;;;;10.18;4.55;;;17.60;51.80;;;;;;4975699;28;20476;-81
2024/03/31 12:16:17;;;;;;;9.18;5.43;;;17.70;51.60;;;;;;4975479;28;20030;-80
2024/03/31 12:18:43;;;;;;;12.27;4.18;;;17.80;50.90;;;;;;4976056;28;20035;-80
2024/03/31 12:21:09;;;;;;;7.32;3.10;;;17.80;50.10;;;;;;4975911;28;20027;-81
2024/03/31 12:23:36;;;;;;;15.88;5.43;;;17.70;49.80;;;;;;4975905;28;20404;-80
2024/03/31 12:26:05;;;;;;;9.90;4.82;;;17.80;49.90;;;;;;4976186;28;20084;-78
2024/03/31 12:28:31;;;;;;;11.00;4.68;;;17.70;49.70;;;;;;4975502;28;20097;-80
2024/03/31 12:30:57;;;;;;;6.07;3.10;;;17.80;50.10;;;;;;4974089;28;20022;-80
2024/03/31 12:33:24;;;;;;;9.30;4.90;;;17.80;49.60;;;;;;4975169;28;20038;-80
2024/03/31 12:35:49;;;;;;;4.28;2.85;;;17.70;49.60;;;;;;4975324;28;20025;-79
2024/03/31 12:38:16;;;;;;;10.40;4.70;;;17.70;49.60;;;;;;4975298;28;20375;-80
2024/03/31 12:40:41;;;;;;;9.10;3.92;;;17.90;49.50;;;;;;4975144;28;20114;-81
2024/03/31 12:43:07;;;;;;;13.20;4.70;;;18.10;49.10;;;;;;4973780;28;20050;-81